sensor_id;sensor_type;location;lat;lon;timestamp;pressure;altitude;pressure_sealevel;temperature;humidity
12757;BME280;31601;48.042;12.240;2022-12-22T00:01:36;95974.50;;;2.17;75.07
12757;BME280;31601;48.042;12.240;2022-12-22T00:04:21;95975.88;;;2.21;75.02
12757;BME280;31601;48.042;12.240;2022-12-22T00:07:05;95972.75;;;2.27;74.55
12757;BME280;31601;48.042;12.240;2022-12-22T00:09:49;95977.09;;;2.17;74.69
12757;BME280;31601;48.042;12.240;2022-12-22T00:12:35;95965.53;;;2.11;74.78
12757;BME280;31601;48.042;12.240;2022-12-22T00:15:20;95967.56;;;2.08;74.81
12757;BME280;31601;48.042;12.240;2022-12-22T00:18:04;95965.94;;;2.07;74.77
12757;BME280;31601;48.042;12.240;2022-12-22T00:20:48;95960.75;;;2.07;74.80
12757;BME280;31601;48.042;12.240;2022-12-22T00:23:33;95959.97;;;1.96;75.28
12757;BME280;31601;48.042;12.240;2022-12-22T00:26:18;95961.59;;;1.97;75.18
12757;BME280;31601;48.042;12.240;2022-12-22T00:29:03;95966.22;;;2.04;74.94
12757;BME280;31601;48.042;12.240;2022-12-22T00:31:48;95955.19;;;2.02;75.07
12757;BME280;31601;48.042;12.240;2022-12-22T00:34:37;95952.34;;;1.95;75.11
12757;BME280;31601;48.042;12.240;2022-12-22T00:37:22;95934.06;;;2.06;74.88
12757;BME280;31601;48.042;12.240;2022-12-22T00:42:58;95928.38;;;2.03;75.88
12757;BME280;31601;48.042;12.240;2022-12-22T00:45:44;95941.03;;;2.06;75.87
12757;BME280;31601;48.042;12.240;2022-12-22T00:48:28;95923.69;;;2.16;75.66
12757;BME280;31601;48.042;12.240;2022-12-22T00:51:12;95915.78;;;2.27;75.41
12757;BME280;31601;48.042;12.240;2022-12-22T00:53:57;95920.00;;;2.28;75.56
12757;BME280;31601;48.042;12.240;2022-12-22T00:56:41;95911.44;;;2.18;75.72
12757;BME280;31601;48.042;12.240;2022-12-22T00:59:25;95912.13;;;2.20;75.66
12757;BME280;31601;48.042;12.240;2022-12-22T01:02:12;95920.97;;;2.27;75.82
12757;BME280;31601;48.042;12.240;2022-12-22T01:04:56;95924.41;;;2.18;75.67
12757;BME280;31601;48.042;12.240;2022-12-22T01:07:40;95926.97;;;2.18;75.68
12757;BME280;31601;48.042;12.240;2022-12-22T01:10:25;95925.63;;;2.14;75.54
12757;BME280;31601;48.042;12.240;2022-12-22T01:13:10;95925.09;;;2.10;75.70
12757;BME280;31601;48.042;12.240;2022-12-22T01:15:54;95924.81;;;2.13;75.28
12757;BME280;31601;48.042;12.240;2022-12-22T01:18:40;95920.06;;;2.09;75.08
12757;BME280;31601;48.042;12.240;2022-12-22T01:21:24;95917.88;;;2.04;75.32
12757;BME280;31601;48.042;12.240;2022-12-22T01:24:11;95928.50;;;1.91;76.23
12757;BME280;31601;48.042;12.240;2022-12-22T01:26:55;95923.03;;;1.94;75.96
12757;BME280;31601;48.042;12.240;2022-12-22T01:29:39;95922.66;;;1.89;75.79
12757;BME280;31601;48.042;12.240;2022-12-22T01:32:23;95933.53;;;1.93;75.87
12757;BME280;31601;48.042;12.240;2022-12-22T01:35:16;95918.56;;;1.96;75.74
12757;BME280;31601;48.042;12.240;2022-12-22T01:38:01;95919.25;;;1.99;75.86
12757;BME280;31601;48.042;12.240;2022-12-22T01:40:45;95915.97;;;2.06;75.74
12757;BME280;31601;48.042;12.240;2022-12-22T01:43:31;95907.38;;;2.06;75.75
12757;BME280;31601;48.042;12.240;2022-12-22T01:46:24;95908.16;;;2.16;75.47
12757;BME280;31601;48.042;12.240;2022-12-22T01:49:10;95906.41;;;2.17;75.41
12757;BME280;31601;48.042;12.240;2022-12-22T01:51:56;95898.38;;;2.20;75.49
12757;BME280;31601;48.042;12.240;2022-12-22T01:54:41;95906.13;;;2.20;75.59
12757;BME280;31601;48.042;12.240;2022-12-22T01:57:27;95894.84;;;2.11;76.26
12757;BME280;31601;48.042;12.240;2022-12-22T02:00:12;95894.53;;;2.24;76.21
12757;BME280;31601;48.042;12.240;2022-12-22T02:02:56;95899.97;;;2.30;76.36
12757;BME280;31601;48.042;12.240;2022-12-22T02:05:52;95889.09;;;2.17;76.65
12757;BME280;31601;48.042;12.240;2022-12-22T02:08:42;95887.84;;;2.31;76.04
12757;BME280;31601;48.042;12.240;2022-12-22T02:11:39;95877.09;;;2.26;76.32
12757;BME280;31601;48.042;12.240;2022-12-22T02:14:36;95879.84;;;2.24;76.35
12757;BME280;31601;48.042;12.240;2022-12-22T02:17:25;95894.25;;;2.27;76.53
12757;BME280;31601;48.042;12.240;2022-12-22T02:20:27;95877.78;;;2.28;76.30
12757;BME280;31601;48.042;12.240;2022-12-22T02:23:23;95887.94;;;2.49;76.33
12757;BME280;31601;48.042;12.240;2022-12-22T02:26:23;95873.19;;;2.49;76.46
12757;BME280;31601;48.042;12.240;2022-12-22T02:29:09;95873.44;;;2.56;76.74
12757;BME280;31601;48.042;12.240;2022-12-22T02:31:55;95877.16;;;2.44;76.50
12757;BME280;31601;48.042;12.240;2022-12-22T02:34:39;95870.75;;;2.48;75.95
12757;BME280;31601;48.042;12.240;2022-12-22T02:37:29;95860.06;;;2.61;75.89
12757;BME280;31601;48.042;12.240;2022-12-22T02:40:25;95863.63;;;2.60;75.90
12757;BME280;31601;48.042;12.240;2022-12-22T02:43:21;95863.34;;;2.63;75.67
12757;BME280;31601;48.042;12.240;2022-12-22T02:46:14;95860.31;;;2.67;75.50
12757;BME280;31601;48.042;12.240;2022-12-22T02:49:07;95861.94;;;2.68;75.80
12757;BME280;31601;48.042;12.240;2022-12-22T02:51:57;95870.53;;;2.69;75.46
12757;BME280;31601;48.042;12.240;2022-12-22T02:54:45;95864.94;;;2.74;75.17
12757;BME280;31601;48.042;12.240;2022-12-22T02:57:29;95876.09;;;2.74;75.44
12757;BME280;31601;48.042;12.240;2022-12-22T03:00:16;95875.47;;;2.62;75.28
12757;BME280;31601;48.042;12.240;2022-12-22T03:03:00;95873.41;;;2.66;75.54
12757;BME280;31601;48.042;12.240;2022-12-22T03:05:44;95876.91;;;2.75;75.67
12757;BME280;31601;48.042;12.240;2022-12-22T03:08:28;95865.22;;;2.71;75.60
12757;BME280;31601;48.042;12.240;2022-12-22T03:11:12;95883.44;;;2.79;75.25
12757;BME280;31601;48.042;12.240;2022-12-22T03:13:56;95881.00;;;2.77;75.22
12757;BME280;31601;48.042;12.240;2022-12-22T03:16:42;95865.66;;;2.56;75.55
12757;BME280;31601;48.042;12.240;2022-12-22T03:19:26;95872.88;;;2.62;75.80
12757;BME280;31601;48.042;12.240;2022-12-22T03:22:10;95844.50;;;2.71;75.42
12757;BME280;31601;48.042;12.240;2022-12-22T03:24:54;95870.78;;;2.76;75.60
12757;BME280;31601;48.042;12.240;2022-12-22T03:27:38;95861.47;;;2.55;76.72
12757;BME280;31601;48.042;12.240;2022-12-22T03:30:05;95865.59;;;2.76;76.26
12757;BME280;31601;48.042;12.240;2022-12-22T03:32:33;95858.16;;;2.63;76.32
12757;BME280;31601;48.042;12.240;2022-12-22T03:35:00;95875.44;;;2.72;76.21
12757;BME280;31601;48.042;12.240;2022-12-22T03:37:26;95859.16;;;2.80;76.19
12757;BME280;31601;48.042;12.240;2022-12-22T03:39:53;95856.94;;;2.85;75.94
12757;BME280;31601;48.042;12.240;2022-12-22T03:42:19;95862.06;;;2.77;76.19
12757;BME280;31601;48.042;12.240;2022-12-22T03:45:04;95858.16;;;2.91;76.05
12757;BME280;31601;48.042;12.240;2022-12-22T03:48:04;95850.09;;;2.94;75.79
12757;BME280;31601;48.042;12.240;2022-12-22T03:50:30;95847.66;;;2.92;75.60
12757;BME280;31601;48.042;12.240;2022-12-22T03:52:57;95856.47;;;2.72;76.72
12757;BME280;31601;48.042;12.240;2022-12-22T03:55:23;95853.56;;;2.84;76.42
12757;BME280;31601;48.042;12.240;2022-12-22T03:57:50;95853.63;;;2.93;76.17
12757;BME280;31601;48.042;12.240;2022-12-22T04:00:16;95854.56;;;3.01;75.96
12757;BME280;31601;48.042;12.240;2022-12-22T04:02:43;95853.50;;;2.94;76.22
12757;BME280;31601;48.042;12.240;2022-12-22T04:05:11;95848.88;;;2.88;75.96
12757;BME280;31601;48.042;12.240;2022-12-22T04:07:37;95860.81;;;2.99;75.78
12757;BME280;31601;48.042;12.240;2022-12-22T04:10:08;95850.41;;;3.09;75.55
12757;BME280;31601;48.042;12.240;2022-12-22T04:12:52;95850.50;;;3.17;75.55
12757;BME280;31601;48.042;12.240;2022-12-22T04:15:19;95868.63;;;3.17;75.22
12757;BME280;31601;48.042;12.240;2022-12-22T04:17:46;95853.75;;;3.19;75.55
12757;BME280;31601;48.042;12.240;2022-12-22T04:20:14;95858.72;;;3.12;75.65
12757;BME280;31601;48.042;12.240;2022-12-22T04:22:40;95865.75;;;3.20;75.69
12757;BME280;31601;48.042;12.240;2022-12-22T04:25:07;95866.78;;;3.27;75.38
12757;BME280;31601;48.042;12.240;2022-12-22T04:27:34;95857.47;;;3.34;75.13
12757;BME280;31601;48.042;12.240;2022-12-22T04:30:00;95867.38;;;3.21;75.36
12757;BME280;31601;48.042;12.240;2022-12-22T04:32:27;95871.31;;;3.25;75.52
12757;BME280;31601;48.042;12.240;2022-12-22T04:34:53;95865.16;;;3.26;75.46
12757;BME280;31601;48.042;12.240;2022-12-22T04:37:21;95851.31;;;3.17;75.74
12757;BME280;31601;48.042;12.240;2022-12-22T04:39:47;95857.53;;;3.25;75.77
12757;BME280;31601;48.042;12.240;2022-12-22T04:42:14;95856.88;;;3.40;75.85
12757;BME280;31601;48.042;12.240;2022-12-22T04:44:40;95852.88;;;3.46;76.13
12757;BME280;31601;48.042;12.240;2022-12-22T04:47:07;95847.09;;;3.52;75.72
12757;BME280;31601;48.042;12.240;2022-12-22T04:49:33;95857.63;;;3.51;75.67
12757;BME280;31601;48.042;12.240;2022-12-22T04:52:00;95844.72;;;3.59;75.80
12757;BME280;31601;48.042;12.240;2022-12-22T04:54:28;95837.81;;;3.68;75.53
12757;BME280;31601;48.042;12.240;2022-12-22T04:56:54;95838.88;;;3.57;75.57
12757;BME280;31601;48.042;12.240;2022-12-22T04:59:20;95836.34;;;3.47;76.31
12757;BME280;31601;48.042;12.240;2022-12-22T05:01:47;95829.28;;;3.39;76.26
12757;BME280;31601;48.042;12.240;2022-12-22T05:04:13;95822.09;;;3.51;75.79
12757;BME280;31601;48.042;12.240;2022-12-22T05:06:40;95817.88;;;3.50;75.95
12757;BME280;31601;48.042;12.240;2022-12-22T05:09:09;95819.38;;;3.53;75.85
12757;BME280;31601;48.042;12.240;2022-12-22T05:11:37;95813.56;;;3.59;75.76
12757;BME280;31601;48.042;12.240;2022-12-22T05:14:04;95815.22;;;3.60;75.62
12757;BME280;31601;48.042;12.240;2022-12-22T05:16:30;95808.59;;;3.66;75.46
12757;BME280;31601;48.042;12.240;2022-12-22T05:18:56;95806.69;;;3.68;75.59
12757;BME280;31601;48.042;12.240;2022-12-22T05:21:23;95813.47;;;3.69;75.55
12757;BME280;31601;48.042;12.240;2022-12-22T05:23:49;95810.50;;;3.82;75.28
12757;BME280;31601;48.042;12.240;2022-12-22T05:26:17;95801.38;;;3.78;75.12
12757;BME280;31601;48.042;12.240;2022-12-22T05:28:45;95802.13;;;3.88;75.32
12757;BME280;31601;48.042;12.240;2022-12-22T05:31:15;95794.81;;;3.91;75.30
12757;BME280;31601;48.042;12.240;2022-12-22T05:33:42;95799.22;;;3.91;75.22
12757;BME280;31601;48.042;12.240;2022-12-22T05:36:08;95806.84;;;3.92;74.92
12757;BME280;31601;48.042;12.240;2022-12-22T05:38:35;95808.31;;;3.95;74.80
12757;BME280;31601;48.042;12.240;2022-12-22T05:41:01;95799.25;;;3.99;74.95
12757;BME280;31601;48.042;12.240;2022-12-22T05:43:28;95788.38;;;3.96;74.69
12757;BME280;31601;48.042;12.240;2022-12-22T05:45:55;95805.47;;;3.80;75.50
12757;BME280;31601;48.042;12.240;2022-12-22T05:48:22;95792.03;;;3.85;75.28
12757;BME280;31601;48.042;12.240;2022-12-22T05:50:49;95785.63;;;3.97;74.67
12757;BME280;31601;48.042;12.240;2022-12-22T05:53:15;95779.91;;;3.93;74.96
12757;BME280;31601;48.042;12.240;2022-12-22T05:55:42;95779.91;;;3.93;74.79
12757;BME280;31601;48.042;12.240;2022-12-22T05:58:08;95781.66;;;3.85;75.30
12757;BME280;31601;48.042;12.240;2022-12-22T06:00:34;95797.72;;;3.88;74.94
12757;BME280;31601;48.042;12.240;2022-12-22T06:03:02;95808.47;;;3.93;75.30
12757;BME280;31601;48.042;12.240;2022-12-22T06:05:29;95802.16;;;3.96;75.42
12757;BME280;31601;48.042;12.240;2022-12-22T06:07:55;95796.66;;;3.99;75.21
12757;BME280;31601;48.042;12.240;2022-12-22T06:10:21;95791.81;;;4.04;75.37
12757;BME280;31601;48.042;12.240;2022-12-22T06:12:48;95784.09;;;4.12;75.71
12757;BME280;31601;48.042;12.240;2022-12-22T06:15:14;95788.44;;;4.12;75.34
12757;BME280;31601;48.042;12.240;2022-12-22T06:17:41;95784.09;;;4.12;75.66
12757;BME280;31601;48.042;12.240;2022-12-22T06:20:10;95783.78;;;4.16;75.58
12757;BME280;31601;48.042;12.240;2022-12-22T06:22:37;95781.13;;;4.07;75.63
12757;BME280;31601;48.042;12.240;2022-12-22T06:25:04;95776.22;;;4.04;75.61
12757;BME280;31601;48.042;12.240;2022-12-22T06:27:30;95786.00;;;4.10;75.57
12757;BME280;31601;48.042;12.240;2022-12-22T06:29:57;95783.56;;;4.09;75.22
12757;BME280;31601;48.042;12.240;2022-12-22T06:32:23;95783.88;;;4.06;75.29
12757;BME280;31601;48.042;12.240;2022-12-22T06:34:50;95787.16;;;4.08;75.50
12757;BME280;31601;48.042;12.240;2022-12-22T06:37:18;95775.03;;;3.90;76.22
12757;BME280;31601;48.042;12.240;2022-12-22T06:39:45;95777.84;;;3.97;75.92
12757;BME280;31601;48.042;12.240;2022-12-22T06:42:11;95782.56;;;4.02;75.41
12757;BME280;31601;48.042;12.240;2022-12-22T06:44:55;95794.22;;;3.98;75.58
12757;BME280;31601;48.042;12.240;2022-12-22T06:47:22;95786.59;;;3.96;75.36
12757;BME280;31601;48.042;12.240;2022-12-22T06:49:48;95784.94;;;3.95;75.76
12757;BME280;31601;48.042;12.240;2022-12-22T06:52:15;95787.38;;;3.97;75.74
12757;BME280;31601;48.042;12.240;2022-12-22T06:54:43;95791.16;;;4.02;75.88
12757;BME280;31601;48.042;12.240;2022-12-22T06:57:09;95782.50;;;3.93;76.13
12757;BME280;31601;48.042;12.240;2022-12-22T06:59:36;95786.94;;;4.01;75.77
12757;BME280;31601;48.042;12.240;2022-12-22T07:02:02;95787.94;;;4.08;75.34
12757;BME280;31601;48.042;12.240;2022-12-22T07:04:28;95806.88;;;4.01;75.41
12757;BME280;31601;48.042;12.240;2022-12-22T07:06:55;95791.13;;;3.94;75.73
12757;BME280;31601;48.042;12.240;2022-12-22T07:09:22;95791.13;;;3.94;75.72
12757;BME280;31601;48.042;12.240;2022-12-22T07:11:50;95785.56;;;3.89;75.48
12757;BME280;31601;48.042;12.240;2022-12-22T07:14:16;95790.56;;;3.82;75.60
12757;BME280;31601;48.042;12.240;2022-12-22T07:16:42;95793.31;;;3.81;75.38
12757;BME280;31601;48.042;12.240;2022-12-22T07:19:11;95788.06;;;3.72;75.39
12757;BME280;31601;48.042;12.240;2022-12-22T07:21:37;95783.84;;;3.71;75.40
12757;BME280;31601;48.042;12.240;2022-12-22T07:24:04;95786.38;;;3.63;75.82
12757;BME280;31601;48.042;12.240;2022-12-22T07:26:31;95785.69;;;3.61;75.58
12757;BME280;31601;48.042;12.240;2022-12-22T07:28:58;95783.84;;;3.71;75.61
12757;BME280;31601;48.042;12.240;2022-12-22T07:31:25;95786.63;;;3.78;75.51
12757;BME280;31601;48.042;12.240;2022-12-22T07:33:51;95788.91;;;3.81;75.88
12757;BME280;31601;48.042;12.240;2022-12-22T07:36:19;95780.22;;;3.90;76.05
12757;BME280;31601;48.042;12.240;2022-12-22T07:38:47;95779.59;;;3.97;76.06
12757;BME280;31601;48.042;12.240;2022-12-22T07:41:15;95776.50;;;3.93;76.60
12757;BME280;31601;48.042;12.240;2022-12-22T07:44:02;95780.13;;;4.00;76.61
12757;BME280;31601;48.042;12.240;2022-12-22T07:46:31;95775.28;;;4.05;76.88
12757;BME280;31601;48.042;12.240;2022-12-22T07:48:57;95779.19;;;4.09;76.61
12757;BME280;31601;48.042;12.240;2022-12-22T07:51:42;95766.38;;;4.08;76.67
12757;BME280;31601;48.042;12.240;2022-12-22T07:54:10;95769.16;;;4.15;76.78
12757;BME280;31601;48.042;12.240;2022-12-22T07:56:38;95764.31;;;4.20;76.45
12757;BME280;31601;48.042;12.240;2022-12-22T07:59:06;95762.53;;;4.20;76.26
12757;BME280;31601;48.042;12.240;2022-12-22T08:01:32;95766.66;;;4.31;75.98
12757;BME280;31601;48.042;12.240;2022-12-22T08:03:59;95761.75;;;4.28;76.00
12757;BME280;31601;48.042;12.240;2022-12-22T08:06:25;95766.28;;;4.26;76.09
12757;BME280;31601;48.042;12.240;2022-12-22T08:08:52;95766.28;;;4.26;76.65
12757;BME280;31601;48.042;12.240;2022-12-22T08:11:19;95766.72;;;4.13;77.92
12757;BME280;31601;48.042;12.240;2022-12-22T08:13:45;95759.16;;;4.28;77.03
12757;BME280;31601;48.042;12.240;2022-12-22T08:16:15;95752.81;;;4.22;76.98
12757;BME280;31601;48.042;12.240;2022-12-22T08:18:42;95750.44;;;4.37;76.49
12757;BME280;31601;48.042;12.240;2022-12-22T08:21:08;95751.41;;;4.44;76.65
12757;BME280;31601;48.042;12.240;2022-12-22T08:23:35;95753.06;;;4.45;76.43
12757;BME280;31601;48.042;12.240;2022-12-22T08:26:06;95747.06;;;4.45;75.99
12757;BME280;31601;48.042;12.240;2022-12-22T08:28:38;95754.06;;;4.53;76.01
12757;BME280;31601;48.042;12.240;2022-12-22T08:31:06;95762.81;;;4.52;75.50
12757;BME280;31601;48.042;12.240;2022-12-22T08:33:35;95761.03;;;4.52;75.87
12757;BME280;31601;48.042;12.240;2022-12-22T08:36:02;95755.97;;;4.51;76.08
12757;BME280;31601;48.042;12.240;2022-12-22T08:38:29;95760.91;;;4.62;76.17
12757;BME280;31601;48.042;12.240;2022-12-22T08:40:56;95762.25;;;4.74;76.00
12757;BME280;31601;48.042;12.240;2022-12-22T08:43:23;95760.13;;;4.86;75.85
12757;BME280;31601;48.042;12.240;2022-12-22T08:45:51;95756.25;;;4.98;76.12
12757;BME280;31601;48.042;12.240;2022-12-22T08:48:17;95768.44;;;5.06;75.94
12757;BME280;31601;48.042;12.240;2022-12-22T08:50:48;95765.69;;;5.08;75.66
12757;BME280;31601;48.042;12.240;2022-12-22T08:53:14;95768.81;;;5.11;75.45
12757;BME280;31601;48.042;12.240;2022-12-22T08:55:41;95757.75;;;5.17;75.27
12757;BME280;31601;48.042;12.240;2022-12-22T08:58:07;95779.53;;;5.16;75.07
12757;BME280;31601;48.042;12.240;2022-12-22T09:00:33;95788.13;;;5.17;75.04
12757;BME280;31601;48.042;12.240;2022-12-22T09:03:00;95792.22;;;5.19;75.12
12757;BME280;31601;48.042;12.240;2022-12-22T09:05:26;95781.00;;;5.35;75.82
12757;BME280;31601;48.042;12.240;2022-12-22T09:07:54;95788.97;;;5.50;75.64
12757;BME280;31601;48.042;12.240;2022-12-22T09:10:20;95793.19;;;5.68;75.81
12757;BME280;31601;48.042;12.240;2022-12-22T09:12:47;95771.53;;;6.00;75.45
12757;BME280;31601;48.042;12.240;2022-12-22T09:15:15;95760.41;;;6.23;74.91
12757;BME280;31601;48.042;12.240;2022-12-22T09:17:43;95760.88;;;6.26;74.40
12757;BME280;31601;48.042;12.240;2022-12-22T09:20:09;95757.84;;;6.54;73.65
12757;BME280;31601;48.042;12.240;2022-12-22T09:22:36;95745.03;;;6.76;72.95
12757;BME280;31601;48.042;12.240;2022-12-22T09:25:05;95748.56;;;6.83;72.29
12757;BME280;31601;48.042;12.240;2022-12-22T09:27:31;95755.53;;;6.91;71.08
12757;BME280;31601;48.042;12.240;2022-12-22T09:29:58;95767.16;;;6.80;69.92
12757;BME280;31601;48.042;12.240;2022-12-22T09:32:26;95762.97;;;6.71;69.11
12757;BME280;31601;48.042;12.240;2022-12-22T09:34:52;95753.53;;;6.70;69.34
12757;BME280;31601;48.042;12.240;2022-12-22T09:37:19;95743.66;;;6.57;69.53
12757;BME280;31601;48.042;12.240;2022-12-22T09:39:45;95745.19;;;6.74;69.33
12757;BME280;31601;48.042;12.240;2022-12-22T09:42:14;95755.84;;;6.65;69.41
12757;BME280;31601;48.042;12.240;2022-12-22T09:44:44;95745.69;;;6.70;68.68
12757;BME280;31601;48.042;12.240;2022-12-22T09:47:31;95745.34;;;6.73;68.60
12757;BME280;31601;48.042;12.240;2022-12-22T09:50:01;95744.22;;;6.75;68.02
12757;BME280;31601;48.042;12.240;2022-12-22T09:52:40;95754.25;;;6.55;68.48
12757;BME280;31601;48.042;12.240;2022-12-22T09:55:13;95752.09;;;6.59;68.97
12757;BME280;31601;48.042;12.240;2022-12-22T09:57:42;95747.16;;;6.72;68.42
12757;BME280;31601;48.042;12.240;2022-12-22T10:00:12;95738.69;;;6.70;68.95
12757;BME280;31601;48.042;12.240;2022-12-22T10:02:46;95736.97;;;6.86;68.85
12757;BME280;31601;48.042;12.240;2022-12-22T10:05:19;95746.25;;;6.88;69.23
12757;BME280;31601;48.042;12.240;2022-12-22T10:07:53;95743.28;;;6.91;69.21
12757;BME280;31601;48.042;12.240;2022-12-22T10:10:26;95750.72;;;7.03;68.49
12757;BME280;31601;48.042;12.240;2022-12-22T10:12:56;95756.34;;;7.14;68.46
12757;BME280;31601;48.042;12.240;2022-12-22T10:15:23;95751.91;;;6.92;68.51
12757;BME280;31601;48.042;12.240;2022-12-22T10:17:51;95749.28;;;7.00;68.12
12757;BME280;31601;48.042;12.240;2022-12-22T10:20:21;95742.53;;;6.82;67.93
12757;BME280;31601;48.042;12.240;2022-12-22T10:22:51;95743.78;;;6.63;67.95
12757;BME280;31601;48.042;12.240;2022-12-22T10:25:30;95733.31;;;6.95;67.35
12757;BME280;31601;48.042;12.240;2022-12-22T10:28:00;95719.31;;;7.19;67.04
12757;BME280;31601;48.042;12.240;2022-12-22T10:30:30;95720.59;;;7.38;66.92
12757;BME280;31601;48.042;12.240;2022-12-22T10:33:03;95715.66;;;7.28;67.35
12757;BME280;31601;48.042;12.240;2022-12-22T10:35:48;95715.16;;;7.48;67.47
12757;BME280;31601;48.042;12.240;2022-12-22T10:38:19;95715.69;;;7.58;68.10
12757;BME280;31601;48.042;12.240;2022-12-22T10:40:48;95714.84;;;7.81;67.48
12757;BME280;31601;48.042;12.240;2022-12-22T10:43:21;95717.47;;;7.96;67.03
12757;BME280;31601;48.042;12.240;2022-12-22T10:45:49;95716.28;;;7.83;67.06
12757;BME280;31601;48.042;12.240;2022-12-22T10:48:24;95718.91;;;7.98;66.63
12757;BME280;31601;48.042;12.240;2022-12-22T10:50:51;95725.13;;;7.97;66.50
12757;BME280;31601;48.042;12.240;2022-12-22T10:53:18;95719.53;;;8.00;66.34
12757;BME280;31601;48.042;12.240;2022-12-22T10:55:44;95712.94;;;8.04;66.43
12757;BME280;31601;48.042;12.240;2022-12-22T10:58:15;95706.63;;;8.14;66.33
12757;BME280;31601;48.042;12.240;2022-12-22T11:00:43;95710.16;;;8.06;65.95
12757;BME280;31601;48.042;12.240;2022-12-22T11:03:11;95711.13;;;8.20;65.76
12757;BME280;31601;48.042;12.240;2022-12-22T11:05:39;95714.28;;;8.15;65.98
12757;BME280;31601;48.042;12.240;2022-12-22T11:08:14;95721.34;;;8.15;65.56
12757;BME280;31601;48.042;12.240;2022-12-22T11:10:46;95717.91;;;8.14;65.68
12757;BME280;31601;48.042;12.240;2022-12-22T11:13:24;95711.25;;;8.12;65.63
12757;BME280;31601;48.042;12.240;2022-12-22T11:15:58;95720.72;;;8.13;65.52
12757;BME280;31601;48.042;12.240;2022-12-22T11:18:43;95707.44;;;7.84;65.83
12757;BME280;31601;48.042;12.240;2022-12-22T11:21:19;95705.94;;;8.05;66.01
12757;BME280;31601;48.042;12.240;2022-12-22T11:23:53;95710.69;;;8.01;66.54
12757;BME280;31601;48.042;12.240;2022-12-22T11:26:31;95703.22;;;8.13;66.26
12757;BME280;31601;48.042;12.240;2022-12-22T11:29:12;95701.16;;;8.23;65.98
12757;BME280;31601;48.042;12.240;2022-12-22T11:31:54;95690.06;;;8.21;65.85
12757;BME280;31601;48.042;12.240;2022-12-22T11:34:36;95692.22;;;8.18;65.94
12757;BME280;31601;48.042;12.240;2022-12-22T11:37:17;95687.25;;;8.23;65.45
12757;BME280;31601;48.042;12.240;2022-12-22T11:39:52;95694.47;;;8.06;66.11
12757;BME280;31601;48.042;12.240;2022-12-22T11:42:42;95694.84;;;8.18;66.22
12757;BME280;31601;48.042;12.240;2022-12-22T11:45:27;95688.09;;;8.23;65.69
12757;BME280;31601;48.042;12.240;2022-12-22T11:48:06;95696.81;;;8.31;65.53
12757;BME280;31601;48.042;12.240;2022-12-22T11:50:39;95686.16;;;8.32;65.23
12757;BME280;31601;48.042;12.240;2022-12-22T11:53:28;95693.69;;;8.20;65.33
12757;BME280;31601;48.042;12.240;2022-12-22T11:56:08;95703.16;;;8.06;65.75
12757;BME280;31601;48.042;12.240;2022-12-22T11:58:51;95712.84;;;7.83;67.38
12757;BME280;31601;48.042;12.240;2022-12-22T12:01:40;95708.53;;;7.75;67.26
12757;BME280;31601;48.042;12.240;2022-12-22T12:04:33;95707.97;;;7.50;67.79
12757;BME280;31601;48.042;12.240;2022-12-22T12:07:11;95700.97;;;7.65;67.94
12757;BME280;31601;48.042;12.240;2022-12-22T12:09:48;95720.16;;;7.34;68.92
12757;BME280;31601;48.042;12.240;2022-12-22T12:12:25;95703.72;;;7.49;68.84
12757;BME280;31601;48.042;12.240;2022-12-22T12:15:03;95707.59;;;7.53;68.44
12757;BME280;31601;48.042;12.240;2022-12-22T12:17:41;95681.22;;;7.63;68.06
12757;BME280;31601;48.042;12.240;2022-12-22T12:20:26;95681.22;;;7.48;68.26
12757;BME280;31601;48.042;12.240;2022-12-22T12:23:08;95687.63;;;7.60;67.61
12757;BME280;31601;48.042;12.240;2022-12-22T12:25:43;95675.75;;;7.73;66.92
12757;BME280;31601;48.042;12.240;2022-12-22T12:28:18;95661.72;;;7.88;66.38
12757;BME280;31601;48.042;12.240;2022-12-22T12:30:52;95656.41;;;7.82;66.28
12757;BME280;31601;48.042;12.240;2022-12-22T12:33:29;95665.31;;;7.73;67.17
12757;BME280;31601;48.042;12.240;2022-12-22T12:36:07;95662.41;;;7.67;68.27
12757;BME280;31601;48.042;12.240;2022-12-22T12:38:42;95676.28;;;7.83;67.80
12757;BME280;31601;48.042;12.240;2022-12-22T12:41:17;95663.41;;;7.81;68.08
12757;BME280;31601;48.042;12.240;2022-12-22T12:43:47;95664.59;;;7.79;67.73
12757;BME280;31601;48.042;12.240;2022-12-22T12:46:48;95667.13;;;7.87;67.89
12757;BME280;31601;48.042;12.240;2022-12-22T12:49:55;95661.44;;;7.83;67.38
12757;BME280;31601;48.042;12.240;2022-12-22T12:55:53;95669.81;;;7.79;68.04
12757;BME280;31601;48.042;12.240;2022-12-22T12:58:46;95657.75;;;7.93;67.59
12757;BME280;31601;48.042;12.240;2022-12-22T13:01:54;95659.81;;;7.82;67.96
12757;BME280;31601;48.042;12.240;2022-12-22T13:08:08;95655.75;;;7.80;68.29
12757;BME280;31601;48.042;12.240;2022-12-22T13:10:38;95662.06;;;7.70;68.19
12757;BME280;31601;48.042;12.240;2022-12-22T13:13:09;95663.44;;;7.66;68.27
12757;BME280;31601;48.042;12.240;2022-12-22T13:15:38;95681.59;;;7.45;69.08
12757;BME280;31601;48.042;12.240;2022-12-22T13:18:09;95673.41;;;7.48;68.63
12757;BME280;31601;48.042;12.240;2022-12-22T13:20:56;95675.66;;;7.51;68.46
12757;BME280;31601;48.042;12.240;2022-12-22T13:23:27;95670.53;;;7.58;68.46
12757;BME280;31601;48.042;12.240;2022-12-22T13:25:56;95660.81;;;7.66;68.88
12757;BME280;31601;48.042;12.240;2022-12-22T13:28:25;95656.78;;;7.79;68.93
12757;BME280;31601;48.042;12.240;2022-12-22T13:30:58;95661.28;;;7.85;68.58
12757;BME280;31601;48.042;12.240;2022-12-22T13:33:28;95660.81;;;7.96;68.38
12757;BME280;31601;48.042;12.240;2022-12-22T13:35:56;95663.06;;;7.99;68.26
12757;BME280;31601;48.042;12.240;2022-12-22T13:38:28;95662.69;;;7.87;68.13
12757;BME280;31601;48.042;12.240;2022-12-22T13:40:56;95670.53;;;8.02;68.36
12757;BME280;31601;48.042;12.240;2022-12-22T13:43:26;95667.13;;;7.87;68.66
12757;BME280;31601;48.042;12.240;2022-12-22T13:45:54;95677.63;;;7.94;68.80
12757;BME280;31601;48.042;12.240;2022-12-22T13:48:35;95659.78;;;8.12;68.12